Aviation Digital Data Service (ADDS)

Output produced by TAFs form (1740 UTC 21 April 2018)
found at http://aviationweather.gov/adds/tafs/
 
TAF RJOC 211706Z 2118/2300 17005KT 9999 FEW030 
     BECMG 2202/2204 36006KT 
     BECMG 2212/2215 16004KT 
     TEMPO 2218/2300 2000 BR BCFG FEW000 SCT005 BKN009